createdAt,value
2023-04-17T00:01:05.261Z,101740.13
2023-04-17T00:03:32.122Z,101741.38
2023-04-17T00:05:58.746Z,101743.59
2023-04-17T00:08:25.189Z,101734.63
2023-04-17T00:11:04.218Z,101732.00
2023-04-17T00:13:33.940Z,101747.91
2023-04-17T00:16:00.408Z,101743.13
2023-04-17T00:18:26.904Z,101744.38
2023-04-17T00:20:53.665Z,101741.84
2023-04-17T00:23:20.252Z,101740.66
2023-04-17T00:25:46.665Z,101736.41
2023-04-17T00:28:13.111Z,101739.69
2023-04-17T00:30:39.520Z,101740.69
2023-04-17T00:33:05.944Z,101738.28
2023-04-17T00:35:32.426Z,101734.41
2023-04-17T00:37:58.820Z,101739.88
2023-04-17T00:40:25.320Z,101742.66
2023-04-17T00:42:56.019Z,101746.06
2023-04-17T00:45:22.484Z,101736.41
2023-04-17T00:47:49.645Z,101738.84
2023-04-17T00:50:16.424Z,101742.28
2023-04-17T00:52:44.000Z,101741.59
2023-04-17T00:55:11.222Z,101745.03
2023-04-17T00:57:37.682Z,101741.47
2023-04-17T01:00:05.570Z,101739.84
2023-04-17T01:02:32.376Z,101741.16
2023-04-17T01:04:58.893Z,101738.91
2023-04-17T01:07:25.492Z,101742.84
2023-04-17T01:09:52.032Z,101735.16
2023-04-17T01:12:23.978Z,101747.91
2023-04-17T01:14:51.544Z,101753.81
2023-04-17T01:17:21.732Z,101745.50
2023-04-17T01:19:49.433Z,101750.94
2023-04-17T01:22:16.594Z,101751.84
2023-04-17T01:24:43.205Z,101762.31
2023-04-17T01:27:13.567Z,101748.72
2023-04-17T01:29:40.801Z,101748.72
2023-04-17T01:32:07.509Z,101751.47
2023-04-17T01:34:36.792Z,101755.97
2023-04-17T01:37:03.802Z,101757.59
2023-04-17T01:39:30.315Z,101758.69
2023-04-17T01:41:56.808Z,101749.72
2023-04-17T01:44:23.230Z,101752.06
2023-04-17T01:46:49.669Z,101753.09
2023-04-17T01:49:16.541Z,101748.13
2023-04-17T01:51:42.986Z,101753.38
2023-04-17T01:54:09.421Z,101756.00
2023-04-17T01:56:35.845Z,101747.59
2023-04-17T01:59:02.253Z,101757.28
2023-04-17T02:01:28.671Z,101761.03
2023-04-17T02:03:55.262Z,101754.41
2023-04-17T02:06:21.831Z,101748.13
2023-04-17T02:08:48.235Z,101749.16
2023-04-17T02:11:15.389Z,101756.81
2023-04-17T02:13:41.858Z,101755.38
2023-04-17T02:16:09.495Z,101763.66
2023-04-17T02:18:36.754Z,101763.97
2023-04-17T02:21:03.286Z,101761.28
2023-04-17T02:23:29.747Z,101762.38
2023-04-17T02:25:56.959Z,101763.09
2023-04-17T02:28:23.407Z,101765.31
2023-04-17T02:30:49.832Z,101776.59
2023-04-17T02:33:16.286Z,101774.50
2023-04-17T02:35:42.760Z,101775.34
2023-04-17T02:38:09.201Z,101773.88
2023-04-17T02:40:35.807Z,101781.25
2023-04-17T02:43:02.284Z,101779.66
2023-04-17T02:45:28.897Z,101778.28
2023-04-17T02:47:55.651Z,101784.53
2023-04-17T02:50:22.341Z,101788.53
2023-04-17T02:52:48.755Z,101775.50
2023-04-17T02:55:15.305Z,101786.94
2023-04-17T02:57:41.708Z,101786.94
2023-04-17T03:00:08.487Z,101789.03
2023-04-17T03:02:35.084Z,101784.16
2023-04-17T03:05:02.148Z,101783.44
2023-04-17T03:07:28.586Z,101781.00
2023-04-17T03:09:57.479Z,101777.88
2023-04-17T03:12:23.915Z,101782.66
2023-04-17T03:14:51.014Z,101789.25
2023-04-17T03:17:18.266Z,101779.50
2023-04-17T03:19:44.694Z,101787.88
2023-04-17T03:22:13.264Z,101783.22
2023-04-17T03:24:41.235Z,101778.03
2023-04-17T03:27:07.737Z,101781.66
2023-04-17T03:29:34.241Z,101782.38
2023-04-17T03:32:00.924Z,101782.66
2023-04-17T03:34:28.995Z,101784.28
2023-04-17T03:36:55.799Z,101786.50
2023-04-17T03:39:22.300Z,101792.56
2023-04-17T03:41:48.794Z,101786.94
2023-04-17T03:44:15.400Z,101787.41
2023-04-17T03:46:41.858Z,101797.63
2023-04-17T03:49:08.252Z,101788.50
2023-04-17T03:51:34.670Z,101803.38
2023-04-17T03:54:01.141Z,101798.31
2023-04-17T03:56:27.668Z,101806.09
2023-04-17T03:58:54.095Z,101803.72
2023-04-17T04:01:22.237Z,101799.72
2023-04-17T04:03:48.945Z,101800.22
2023-04-17T04:06:20.149Z,101799.81
2023-04-17T04:08:46.608Z,101806.50
2023-04-17T04:11:13.811Z,101809.53
2023-04-17T04:13:40.550Z,101814.38
2023-04-17T04:16:07.461Z,101809.09
2023-04-17T04:18:34.642Z,101808.34
2023-04-17T04:21:01.133Z,101805.53
2023-04-17T04:23:28.026Z,101817.94
2023-04-17T04:25:56.843Z,101819.56
2023-04-17T04:28:23.969Z,101820.00
2023-04-17T04:30:51.459Z,101817.25
2023-04-17T04:33:20.223Z,101825.03
2023-04-17T04:35:51.187Z,101819.59
2023-04-17T04:38:17.813Z,101813.88
2023-04-17T04:40:52.108Z,101825.22
2023-04-17T04:43:20.815Z,101826.13
2023-04-17T04:45:48.733Z,101833.75
2023-04-17T04:48:15.336Z,101841.44
2023-04-17T04:50:41.821Z,101837.94
2023-04-17T04:53:08.224Z,101848.28
2023-04-17T04:55:34.736Z,101837.94
2023-04-17T04:58:01.174Z,101843.44
2023-04-17T05:00:27.597Z,101849.06
2023-04-17T05:02:54.292Z,101862.44
2023-04-17T05:05:21.026Z,101851.94
2023-04-17T05:07:47.420Z,101855.03
2023-04-17T05:10:13.878Z,101861.53
2023-04-17T05:12:41.104Z,101864.47
2023-04-17T05:15:08.004Z,101863.25
2023-04-17T05:17:34.447Z,101859.63
2023-04-17T05:20:00.898Z,101873.78
2023-04-17T05:22:27.613Z,101878.72
2023-04-17T05:24:54.120Z,101873.88
2023-04-17T05:27:20.618Z,101882.78
2023-04-17T05:29:47.013Z,101882.88
2023-04-17T05:32:13.471Z,101883.88
2023-04-17T05:34:39.962Z,101883.16
2023-04-17T05:37:07.021Z,101877.19
2023-04-17T05:39:34.315Z,101887.22
2023-04-17T05:42:01.456Z,101877.44
2023-04-17T05:44:27.932Z,101875.72
2023-04-17T05:46:57.123Z,101884.59
2023-04-17T05:49:23.587Z,101890.31
2023-04-17T05:51:50.029Z,101886.06
2023-04-17T05:54:16.498Z,101885.03
2023-04-17T05:56:43.020Z,101883.88
2023-04-17T05:59:09.656Z,101887.09
2023-04-17T06:01:36.377Z,101893.91
2023-04-17T06:04:03.212Z,101894.09
2023-04-17T06:06:29.887Z,101893.81
2023-04-17T06:08:56.443Z,101893.47
2023-04-17T06:11:24.132Z,101894.00
2023-04-17T06:13:51.875Z,101897.03
2023-04-17T06:16:18.635Z,101905.75
2023-04-17T06:18:45.171Z,101895.41
2023-04-17T06:21:11.674Z,101905.53
2023-04-17T06:23:38.073Z,101902.50
2023-04-17T06:26:04.571Z,101898.63
2023-04-17T06:28:32.196Z,101896.63
2023-04-17T06:30:58.641Z,101895.44
2023-04-17T06:33:26.773Z,101902.09
2023-04-17T06:35:53.468Z,101904.09
2023-04-17T06:38:19.915Z,101908.53
2023-04-17T06:40:46.641Z,101902.69
2023-04-17T06:43:15.403Z,101903.59
2023-04-17T06:45:44.609Z,101903.06
2023-04-17T06:48:11.442Z,101920.03
2023-04-17T06:50:37.917Z,101925.97
2023-04-17T06:53:04.548Z,101921.84
2023-04-17T06:55:30.966Z,101929.31
2023-04-17T06:57:57.405Z,101934.66
2023-04-17T07:00:24.036Z,101934.25
2023-04-17T07:02:51.380Z,101936.13
2023-04-17T07:05:18.165Z,101940.03
2023-04-17T07:07:44.653Z,101943.91
2023-04-17T07:10:11.090Z,101945.69
2023-04-17T07:12:37.722Z,101944.34
2023-04-17T07:15:04.480Z,101954.84
2023-04-17T07:17:30.929Z,101961.13
2023-04-17T07:19:57.358Z,101951.81
2023-04-17T07:22:25.244Z,101953.16
2023-04-17T07:24:53.188Z,101952.91
2023-04-17T07:27:19.819Z,101963.31
2023-04-17T07:29:52.778Z,101964.50
2023-04-17T07:32:19.331Z,101964.50
2023-04-17T07:34:45.952Z,101972.06
2023-04-17T07:37:12.454Z,101978.72
2023-04-17T07:39:38.992Z,101974.63
2023-04-17T07:42:08.664Z,101973.94
2023-04-17T07:44:35.425Z,101974.34
2023-04-17T07:47:01.979Z,101979.19
2023-04-17T07:49:28.604Z,101979.81
2023-04-17T07:51:55.214Z,101994.59
2023-04-17T07:54:21.698Z,101985.53
2023-04-17T07:56:49.259Z,101986.16
2023-04-17T07:59:18.906Z,101996.88
2023-04-17T08:01:45.340Z,101998.31
2023-04-17T08:04:12.029Z,101991.34
2023-04-17T08:06:39.115Z,101986.44
2023-04-17T08:09:05.597Z,101992.88
2023-04-17T08:11:35.675Z,102006.50
2023-04-17T08:14:06.536Z,102002.13
2023-04-17T08:16:33.451Z,101997.50
2023-04-17T08:18:59.984Z,102009.69
2023-04-17T08:21:26.727Z,102014.72
2023-04-17T08:23:53.121Z,102002.25
2023-04-17T08:26:20.500Z,102023.31
2023-04-17T08:28:47.040Z,102028.34
2023-04-17T08:31:13.890Z,102023.13
2023-04-17T08:33:40.581Z,102038.19
2023-04-17T08:36:09.658Z,102053.50
2023-04-17T08:38:36.492Z,102051.56
2023-04-17T08:41:06.052Z,102050.59
2023-04-17T08:43:35.722Z,102043.66
2023-04-17T08:46:03.459Z,102023.66
2023-04-17T08:48:30.568Z,102031.56
2023-04-17T08:50:57.090Z,102035.59
2023-04-17T08:53:23.523Z,102041.59
2023-04-17T08:55:50.177Z,102041.59
2023-04-17T08:58:17.770Z,102045.28
2023-04-17T09:00:45.574Z,102048.19
2023-04-17T09:03:13.606Z,102048.00
2023-04-17T09:05:43.317Z,102062.06
2023-04-17T09:08:20.747Z,102051.41
2023-04-17T09:10:53.080Z,102044.81
2023-04-17T09:13:24.792Z,102042.22
2023-04-17T09:16:04.711Z,102052.88
2023-04-17T09:18:32.124Z,102056.59
2023-04-17T09:21:03.023Z,102050.91
2023-04-17T09:23:31.685Z,102061.59
2023-04-17T09:26:09.073Z,102074.84
2023-04-17T09:28:36.044Z,102061.09
2023-04-17T09:31:23.464Z,102058.53
2023-04-17T09:34:01.918Z,102069.47
2023-04-17T09:36:33.279Z,102057.38
2023-04-17T09:39:04.060Z,102073.22
2023-04-17T09:41:32.756Z,102074.34
2023-04-17T09:44:07.176Z,102053.94
2023-04-17T09:46:45.562Z,102065.63
2023-04-17T09:49:54.168Z,102069.25
2023-04-17T09:52:25.581Z,102078.53
2023-04-17T09:54:53.749Z,102082.25
2023-04-17T09:57:21.243Z,102082.06
2023-04-17T09:59:49.070Z,102076.13
2023-04-17T10:02:18.533Z,102078.22
2023-04-17T10:04:52.561Z,102089.81
2023-04-17T10:07:19.001Z,102092.06
2023-04-17T10:09:45.877Z,102095.75
2023-04-17T10:12:15.363Z,102084.69
2023-04-17T10:14:46.542Z,102110.47
2023-04-17T10:17:34.012Z,102085.50
2023-04-17T10:20:18.287Z,102103.91
2023-04-17T10:22:45.059Z,102097.59
2023-04-17T10:25:11.582Z,102099.66
2023-04-17T10:27:38.805Z,102109.69
2023-04-17T10:30:09.455Z,102105.97
2023-04-17T10:32:36.914Z,102108.41
2023-04-17T10:35:23.759Z,102116.94
2023-04-17T10:37:50.196Z,102091.75
2023-04-17T10:40:24.715Z,102092.56
2023-04-17T10:43:17.935Z,102093.25
2023-04-17T10:46:03.637Z,102099.84
2023-04-17T10:48:40.772Z,102113.88
2023-04-17T10:51:26.871Z,102121.34
2023-04-17T10:53:56.033Z,102111.91
2023-04-17T10:56:35.355Z,102119.88
2023-04-17T10:59:12.879Z,102117.44
2023-04-17T11:02:09.199Z,102127.81
2023-04-17T11:04:36.032Z,102114.38
2023-04-17T11:07:02.662Z,102126.34
2023-04-17T11:09:29.611Z,102129.41
2023-04-17T11:11:59.649Z,102126.84
2023-04-17T11:14:26.627Z,102119.22
2023-04-17T11:16:53.221Z,102128.09
2023-04-17T11:19:22.985Z,102130.38
2023-04-17T11:21:52.302Z,102135.84
2023-04-17T11:24:31.962Z,102135.38
2023-04-17T11:27:00.169Z,102127.47
2023-04-17T11:29:27.570Z,102131.19
2023-04-17T11:31:56.947Z,102127.19
2023-04-17T11:34:25.840Z,102129.25
2023-04-17T11:37:01.663Z,102141.66
2023-04-17T11:39:31.008Z,102139.84
2023-04-17T11:41:57.863Z,102144.41
2023-04-17T11:44:25.456Z,102137.91
2023-04-17T11:46:53.380Z,102139.94
2023-04-17T11:49:27.412Z,102139.06
2023-04-17T11:51:59.327Z,102134.94
2023-04-17T11:54:26.557Z,102145.34
2023-04-17T11:57:05.291Z,102141.41
2023-04-17T11:59:37.858Z,102154.84
2023-04-17T12:02:08.663Z,102155.34
2023-04-17T12:04:37.119Z,102149.13
2023-04-17T12:07:05.189Z,102143.66
2023-04-17T12:09:32.922Z,102160.78
2023-04-17T12:12:07.377Z,102159.91
2023-04-17T12:14:34.198Z,102159.13
2023-04-17T12:17:01.113Z,102145.72
2023-04-17T12:19:29.270Z,102136.91
2023-04-17T12:21:56.464Z,102140.25
2023-04-17T12:24:24.743Z,102129.22
2023-04-17T12:26:52.328Z,102141.16
2023-04-17T12:29:26.591Z,102149.91
2023-04-17T12:31:59.330Z,102139.94
2023-04-17T12:34:27.239Z,102143.78
2023-04-17T12:36:54.304Z,102142.19
2023-04-17T12:39:20.792Z,102141.31
2023-04-17T12:41:47.286Z,102147.06
2023-04-17T12:44:14.241Z,102137.13
2023-04-17T12:46:41.149Z,102150.59
2023-04-17T12:49:07.640Z,102135.19
2023-04-17T12:51:37.582Z,102139.59
2023-04-17T12:54:04.280Z,102136.59
2023-04-17T12:56:30.819Z,102119.28
2023-04-17T12:58:57.294Z,102131.19
2023-04-17T13:01:25.314Z,102138.56
2023-04-17T13:03:52.031Z,102123.78
2023-04-17T13:06:18.963Z,102121.91
2023-04-17T13:08:45.429Z,102120.28
2023-04-17T13:11:11.853Z,102124.53
2023-04-17T13:13:38.272Z,102130.25
2023-04-17T13:16:05.324Z,102120.50
2023-04-17T13:18:31.741Z,102134.19
2023-04-17T13:20:58.251Z,102130.19
2023-04-17T13:23:24.778Z,102123.19
2023-04-17T13:25:51.217Z,102123.47
2023-04-17T13:28:17.663Z,102132.75
2023-04-17T13:30:44.135Z,102125.16
2023-04-17T13:33:10.661Z,102132.41
2023-04-17T13:35:37.095Z,102125.06
2023-04-17T13:38:04.230Z,102120.78
2023-04-17T13:40:31.171Z,102113.94
2023-04-17T13:42:58.415Z,102112.19
2023-04-17T13:45:25.035Z,102115.28
2023-04-17T13:47:51.862Z,102112.09
2023-04-17T13:50:18.388Z,102106.53
2023-04-17T13:52:44.870Z,102111.03
2023-04-17T13:55:14.378Z,102109.03
2023-04-17T13:57:40.868Z,102111.19
2023-04-17T14:00:07.943Z,102106.66
2023-04-17T14:02:34.633Z,102109.34
2023-04-17T14:05:01.239Z,102111.44
2023-04-17T14:07:27.812Z,102106.19
2023-04-17T14:09:54.268Z,102113.44
2023-04-17T14:12:21.684Z,102105.25
2023-04-17T14:14:48.287Z,102107.00
2023-04-17T14:17:14.910Z,102094.84
2023-04-17T14:19:41.564Z,102108.91
2023-04-17T14:22:08.078Z,102101.03
2023-04-17T14:24:34.572Z,102100.31
2023-04-17T14:27:01.835Z,102110.53
2023-04-17T14:29:28.657Z,102119.28
2023-04-17T14:31:55.333Z,102103.50
2023-04-17T14:34:21.929Z,102117.16
2023-04-17T14:36:48.789Z,102107.38
2023-04-17T14:39:15.572Z,102106.00
2023-04-17T14:41:42.283Z,102116.44
2023-04-17T14:44:08.907Z,102127.63
2023-04-17T14:46:35.738Z,102121.53
2023-04-17T14:49:02.674Z,102108.88
2023-04-17T14:51:30.713Z,102097.38
2023-04-17T14:53:57.493Z,102109.69
2023-04-17T14:56:24.318Z,102112.28
2023-04-17T14:58:50.910Z,102103.25
2023-04-17T15:01:17.434Z,102100.00
2023-04-17T15:03:46.839Z,102099.81
2023-04-17T15:06:15.186Z,102107.50
2023-04-17T15:08:41.891Z,102105.38
2023-04-17T15:11:08.826Z,102115.16
2023-04-17T15:13:35.925Z,102113.13
2023-04-17T15:16:02.621Z,102106.09
2023-04-17T15:18:29.221Z,102115.63
2023-04-17T15:20:56.098Z,102117.84
2023-04-17T15:23:22.985Z,102118.91
2023-04-17T15:25:49.510Z,102118.53
2023-04-17T15:28:16.080Z,102125.25
2023-04-17T15:30:42.704Z,102123.13
2023-04-17T15:33:10.435Z,102116.63
2023-04-17T15:35:37.679Z,102120.25
2023-04-17T15:38:06.360Z,102103.63
2023-04-17T15:40:33.853Z,102111.34
2023-04-17T15:43:00.794Z,102112.94
2023-04-17T15:45:27.454Z,102114.00
2023-04-17T15:47:54.650Z,102107.16
2023-04-17T15:50:21.783Z,102109.94
2023-04-17T15:52:48.430Z,102103.47
2023-04-17T15:55:15.354Z,102105.78
2023-04-17T15:57:43.085Z,102095.88
2023-04-17T16:00:10.399Z,102103.16
2023-04-17T16:02:36.956Z,102105.91
2023-04-17T16:05:04.028Z,102116.41
2023-04-17T16:07:30.637Z,102106.84
2023-04-17T16:09:58.501Z,102104.78
2023-04-17T16:12:25.013Z,102110.91
2023-04-17T16:14:51.609Z,102111.97
2023-04-17T16:17:18.168Z,102104.56
2023-04-17T16:19:44.681Z,102106.41
2023-04-17T16:22:11.223Z,102112.38
2023-04-17T16:24:37.760Z,102108.16
2023-04-17T16:27:06.526Z,102113.72
2023-04-17T16:29:32.941Z,102108.63
2023-04-17T16:31:59.530Z,102111.69
2023-04-17T16:34:26.123Z,102124.47
2023-04-17T16:36:52.629Z,102123.56
2023-04-17T16:39:19.125Z,102125.16
2023-04-17T16:41:45.637Z,102119.75
2023-04-17T16:44:12.993Z,102121.59
2023-04-17T16:47:05.145Z,102122.50
2023-04-17T16:49:26.196Z,102121.91
2023-04-17T16:51:52.881Z,102118.34
2023-04-17T16:54:21.446Z,102119.47
2023-04-17T16:56:51.943Z,102124.50
2023-04-17T16:59:18.451Z,102126.63
2023-04-17T17:01:46.948Z,102130.38
2023-04-17T17:04:13.546Z,102117.53
2023-04-17T17:06:40.095Z,102124.69
2023-04-17T17:09:06.681Z,102123.91
2023-04-17T17:11:33.252Z,102126.59
2023-04-17T17:13:59.782Z,102124.00
2023-04-17T17:16:26.326Z,102119.25
2023-04-17T17:18:52.776Z,102128.06
2023-04-17T17:21:19.335Z,102126.97
2023-04-17T17:23:45.943Z,102128.25
2023-04-17T17:26:12.541Z,102132.00
2023-04-17T17:28:39.009Z,102138.09
2023-04-17T17:31:09.852Z,102137.88
2023-04-17T17:33:36.796Z,102141.09
2023-04-17T17:36:03.769Z,102139.59
2023-04-17T17:38:32.497Z,102152.78
2023-04-17T17:40:59.306Z,102135.38
2023-04-17T17:43:27.988Z,102136.78
2023-04-17T17:45:54.456Z,102138.59
2023-04-17T17:48:21.235Z,102142.63
2023-04-17T17:50:47.918Z,102141.47
2023-04-17T17:53:16.577Z,102149.38
2023-04-17T17:55:43.083Z,102146.59
2023-04-17T17:58:09.612Z,102139.78
2023-04-17T18:00:36.095Z,102147.75
2023-04-17T18:03:02.701Z,102146.09
2023-04-17T18:05:29.246Z,102149.66
2023-04-17T18:07:55.865Z,102153.91
2023-04-17T18:10:22.618Z,102158.69
2023-04-17T18:12:49.770Z,102153.75
2023-04-17T18:15:16.504Z,102161.63
2023-04-17T18:17:43.192Z,102157.63
2023-04-17T18:20:10.390Z,102154.13
2023-04-17T18:22:38.251Z,102146.66
2023-04-17T18:25:06.986Z,102156.22
2023-04-17T18:27:36.127Z,102163.25
2023-04-17T18:30:05.168Z,102158.72
2023-04-17T18:32:32.097Z,102161.91
2023-04-17T18:34:59.573Z,102160.78
2023-04-17T18:37:26.072Z,102167.34
2023-04-17T18:39:52.707Z,102157.25
2023-04-17T18:42:19.794Z,102170.75
2023-04-17T18:44:46.338Z,102167.34
2023-04-17T18:47:12.855Z,102174.44
2023-04-17T18:49:39.437Z,102179.75
2023-04-17T18:52:05.866Z,102171.44
2023-04-17T18:54:32.604Z,102176.28
2023-04-17T18:56:59.173Z,102183.72
2023-04-17T18:59:27.954Z,102177.16
2023-04-17T19:01:54.388Z,102176.50
2023-04-17T19:04:21.885Z,102173.25
2023-04-17T19:06:48.347Z,102168.19
2023-04-17T19:09:14.937Z,102179.38
2023-04-17T19:11:41.387Z,102176.50
2023-04-17T19:14:07.865Z,102182.09
2023-04-17T19:16:34.718Z,102170.31
2023-04-17T19:19:01.266Z,102171.97
2023-04-17T19:21:28.350Z,102175.97
2023-04-17T19:23:54.781Z,102177.00
2023-04-17T19:26:24.064Z,102176.91
2023-04-17T19:28:59.259Z,102186.50
2023-04-17T19:31:29.392Z,102169.97
2023-04-17T19:33:57.170Z,102180.94
2023-04-17T19:36:27.621Z,102175.13
2023-04-17T19:38:55.718Z,102170.22
2023-04-17T19:41:22.271Z,102171.75
2023-04-17T19:43:50.782Z,102176.28
2023-04-17T19:46:19.009Z,102178.47
2023-04-17T19:48:47.348Z,102179.81
2023-04-17T19:51:16.064Z,102178.09
2023-04-17T19:53:43.944Z,102177.97
2023-04-17T19:56:11.190Z,102180.16
2023-04-17T19:58:38.426Z,102169.03
2023-04-17T20:01:05.168Z,102175.72
2023-04-17T20:03:32.563Z,102177.88
2023-04-17T20:06:00.002Z,102166.84
2023-04-17T20:08:26.526Z,102169.59
2023-04-17T20:10:53.018Z,102175.44
2023-04-17T20:13:19.462Z,102175.72
2023-04-17T20:15:45.991Z,102172.75
2023-04-17T20:18:12.496Z,102177.69
2023-04-17T20:20:39.354Z,102174.78
2023-04-17T20:23:06.142Z,102175.34
2023-04-17T20:25:32.976Z,102168.69
2023-04-17T20:27:59.854Z,102167.06
2023-04-17T20:30:26.491Z,102170.34
2023-04-17T20:32:53.014Z,102166.94
2023-04-17T20:35:23.503Z,102174.13
2023-04-17T20:37:51.574Z,102169.53
2023-04-17T20:40:18.997Z,102175.66
2023-04-17T20:42:46.372Z,102166.00
2023-04-17T20:45:13.328Z,102170.91
2023-04-17T20:47:54.946Z,102167.00
2023-04-17T20:50:23.255Z,102171.41
2023-04-17T20:52:49.783Z,102163.72
2023-04-17T20:55:18.613Z,102177.19
2023-04-17T20:57:45.912Z,102172.81
2023-04-17T21:00:12.916Z,102169.31
2023-04-17T21:02:39.462Z,102166.09
2023-04-17T21:05:07.605Z,102170.28
2023-04-17T21:07:34.074Z,102173.25
2023-04-17T21:10:00.534Z,102171.63
2023-04-17T21:12:27.010Z,102162.19
2023-04-17T21:14:53.506Z,102174.28
2023-04-17T21:17:20.000Z,102182.66
2023-04-17T21:19:47.202Z,102178.16
2023-04-17T21:22:13.637Z,102177.34
2023-04-17T21:24:40.166Z,102172.00
2023-04-17T21:27:06.648Z,102174.41
2023-04-17T21:29:33.035Z,102170.19
2023-04-17T21:31:59.766Z,102165.28
2023-04-17T21:34:26.308Z,102173.50
2023-04-17T21:36:54.066Z,102174.00
2023-04-17T21:39:21.350Z,102171.38
2023-04-17T21:41:47.959Z,102171.69
2023-04-17T21:44:15.137Z,102171.31
2023-04-17T21:46:44.475Z,102169.53
2023-04-17T21:49:10.887Z,102168.22
2023-04-17T21:51:37.301Z,102168.66
2023-04-17T21:54:04.175Z,102162.72
2023-04-17T21:56:30.823Z,102162.38
2023-04-17T21:58:57.207Z,102161.84
2023-04-17T22:01:23.783Z,102154.66
2023-04-17T22:03:50.546Z,102163.94
2023-04-17T22:06:16.958Z,102166.97
2023-04-17T22:08:43.465Z,102162.66
2023-04-17T22:11:10.298Z,102165.31
2023-04-17T22:13:36.689Z,102169.00
2023-04-17T22:16:03.563Z,102166.84
2023-04-17T22:18:30.072Z,102168.75
2023-04-17T22:20:56.484Z,102165.94
2023-04-17T22:23:22.958Z,102165.19
2023-04-17T22:25:49.335Z,102164.91
2023-04-17T22:28:15.724Z,102173.72
2023-04-17T22:30:42.185Z,102179.47
2023-04-17T22:33:08.613Z,102161.78
2023-04-17T22:35:35.220Z,102171.31
2023-04-17T22:38:01.634Z,102166.84
2023-04-17T22:40:29.772Z,102169.38
2023-04-17T22:42:56.212Z,102172.91
2023-04-17T22:45:22.658Z,102176.34
2023-04-17T22:47:49.104Z,102175.94
2023-04-17T22:50:15.579Z,102173.44
2023-04-17T22:52:41.968Z,102178.00
2023-04-17T22:55:08.674Z,102181.75
2023-04-17T22:57:35.556Z,102184.81
2023-04-17T23:00:02.141Z,102183.16
2023-04-17T23:02:28.686Z,102180.28
2023-04-17T23:04:55.134Z,102179.72
2023-04-17T23:07:21.580Z,102186.16
2023-04-17T23:09:48.361Z,102190.63
2023-04-17T23:12:14.849Z,102199.94
2023-04-17T23:14:41.450Z,102194.38
2023-04-17T23:17:07.907Z,102191.72
2023-04-17T23:19:34.359Z,102207.13
2023-04-17T23:22:01.134Z,102202.81
2023-04-17T23:24:34.041Z,102194.38
2023-04-17T23:27:01.619Z,102199.00
2023-04-17T23:29:28.636Z,102200.16
2023-04-17T23:31:55.116Z,102194.16
2023-04-17T23:34:22.002Z,102197.59
2023-04-17T23:36:48.457Z,102197.19
2023-04-17T23:39:14.904Z,102195.94
2023-04-17T23:41:42.139Z,102193.50
2023-04-17T23:44:09.454Z,102194.53
2023-04-17T23:46:36.401Z,102199.78
2023-04-17T23:49:03.521Z,102198.13
2023-04-17T23:51:30.342Z,102201.09
2023-04-17T23:53:59.257Z,102195.78
2023-04-17T23:56:25.965Z,102195.31
2023-04-17T23:58:52.374Z,102198.44
